createdAt,value
2023-09-07T00:00:19.491Z,69.58
2023-09-07T00:06:30.057Z,69.70
2023-09-07T00:08:57.965Z,70.64
2023-09-07T00:11:25.876Z,71.11
2023-09-07T00:13:53.842Z,71.49
2023-09-07T00:16:21.856Z,71.46
2023-09-07T00:18:50.517Z,71.62
2023-09-07T00:21:18.575Z,71.13
2023-09-07T00:23:47.910Z,70.41
2023-09-07T00:26:16.239Z,70.44
2023-09-07T00:28:44.269Z,70.52
2023-09-07T00:31:12.302Z,70.23
2023-09-07T00:33:40.415Z,70.86
2023-09-07T00:36:08.378Z,70.91
2023-09-07T00:38:36.338Z,70.48
2023-09-07T00:41:05.738Z,70.22
2023-09-07T00:43:33.679Z,70.73
2023-09-07T00:46:01.707Z,70.64
2023-09-07T00:48:29.995Z,71.22
2023-09-07T00:50:58.232Z,71.44
2023-09-07T00:53:26.491Z,71.33
2023-09-07T00:55:54.454Z,72.15
2023-09-07T00:58:23.953Z,72.16
2023-09-07T01:00:52.137Z,73.10
2023-09-07T01:03:20.148Z,72.90
2023-09-07T01:05:53.233Z,73.35
2023-09-07T01:08:25.948Z,72.50
2023-09-07T01:10:54.828Z,72.73
2023-09-07T01:13:24.267Z,72.66
2023-09-07T01:15:52.706Z,72.77
2023-09-07T01:18:25.121Z,72.38
2023-09-07T01:20:54.880Z,72.24
2023-09-07T01:23:24.704Z,72.28
2023-09-07T01:25:53.561Z,72.26
2023-09-07T01:28:22.689Z,71.56
2023-09-07T01:30:50.640Z,71.61
2023-09-07T01:33:18.603Z,71.96
2023-09-07T01:35:47.574Z,71.50
2023-09-07T01:38:15.608Z,71.82
2023-09-07T01:40:44.926Z,71.57
2023-09-07T01:43:12.878Z,71.88
2023-09-07T01:45:40.921Z,72.02
2023-09-07T01:48:10.783Z,72.13
2023-09-07T01:50:38.812Z,72.71
2023-09-07T01:53:06.794Z,73.17
2023-09-07T01:55:34.878Z,72.72
2023-09-07T01:58:04.442Z,72.16
2023-09-07T02:00:32.375Z,72.48
2023-09-07T02:03:00.463Z,72.58
2023-09-07T02:05:28.543Z,72.15
2023-09-07T02:07:56.587Z,72.34
2023-09-07T02:10:25.929Z,72.46
2023-09-07T02:12:53.018Z,72.30
2023-09-07T02:15:22.425Z,72.21
2023-09-07T02:17:50.568Z,72.25
2023-09-07T02:20:20.086Z,72.34
2023-09-07T02:22:48.166Z,72.53
2023-09-07T02:25:16.147Z,73.00
2023-09-07T02:27:44.259Z,73.17
2023-09-07T02:30:12.764Z,72.98
2023-09-07T02:32:45.118Z,73.03
2023-09-07T02:35:13.142Z,73.15
2023-09-07T02:37:41.067Z,72.98
2023-09-07T02:40:10.766Z,72.67
2023-09-07T02:42:38.712Z,72.67
2023-09-07T02:45:07.776Z,72.92
2023-09-07T02:47:35.976Z,72.83
2023-09-07T02:50:06.604Z,72.80
2023-09-07T02:52:34.528Z,73.01
2023-09-07T02:55:02.526Z,72.89
2023-09-07T02:57:30.484Z,73.23
2023-09-07T02:59:58.539Z,73.18
2023-09-07T03:02:26.741Z,73.52
2023-09-07T03:04:56.273Z,73.19
2023-09-07T03:07:25.600Z,73.04
2023-09-07T03:09:54.247Z,73.01
2023-09-07T03:12:22.730Z,72.94
2023-09-07T03:14:51.550Z,73.05
2023-09-07T03:17:19.635Z,72.89
2023-09-07T03:19:47.756Z,73.09
2023-09-07T03:22:16.124Z,73.07
2023-09-07T03:24:45.805Z,73.37
2023-09-07T03:27:13.851Z,73.33
2023-09-07T03:29:41.806Z,73.01
2023-09-07T03:32:09.940Z,73.41
2023-09-07T03:34:38.029Z,73.63
2023-09-07T03:37:07.505Z,73.96
2023-09-07T03:39:35.687Z,74.26
2023-09-07T03:42:05.241Z,74.37
2023-09-07T03:44:33.199Z,74.81
2023-09-07T03:47:03.226Z,74.76
2023-09-07T03:49:31.330Z,74.90
2023-09-07T03:51:59.346Z,74.92
2023-09-07T03:54:27.303Z,75.09
2023-09-07T03:56:55.385Z,75.00
2023-09-07T03:59:24.742Z,74.81
2023-09-07T04:01:52.828Z,74.31
2023-09-07T04:04:21.258Z,74.13
2023-09-07T04:06:49.670Z,74.23
2023-09-07T04:09:17.606Z,74.13
2023-09-07T04:15:35.599Z,74.23
2023-09-07T04:18:03.617Z,74.63
2023-09-07T04:20:31.600Z,74.62
2023-09-07T04:22:59.546Z,74.77
2023-09-07T04:25:27.757Z,74.92
2023-09-07T04:27:57.812Z,75.12
2023-09-07T04:30:26.031Z,75.01
2023-09-07T04:32:55.463Z,75.18
2023-09-07T04:35:23.563Z,75.12
2023-09-07T04:37:51.612Z,75.12
2023-09-07T04:40:19.722Z,74.93
2023-09-07T04:42:47.662Z,74.79
2023-09-07T04:45:15.800Z,74.93
2023-09-07T04:47:43.775Z,75.01
2023-09-07T04:50:14.659Z,75.01
2023-09-07T04:52:42.682Z,75.06
2023-09-07T04:55:11.027Z,75.44
2023-09-07T04:57:39.289Z,75.28
2023-09-07T05:00:09.013Z,77.59
2023-09-07T05:02:41.509Z,76.65
2023-09-07T05:05:10.274Z,76.22
2023-09-07T05:07:39.604Z,75.96
2023-09-07T05:10:09.836Z,75.51
2023-09-07T05:12:37.976Z,75.47
2023-09-07T05:15:07.942Z,75.80
2023-09-07T05:17:36.038Z,75.49
2023-09-07T05:20:04.783Z,75.16
2023-09-07T05:22:35.510Z,75.19
2023-09-07T05:25:05.315Z,75.12
2023-09-07T05:27:33.297Z,75.21
2023-09-07T05:30:01.257Z,76.61
2023-09-07T05:32:29.215Z,76.62
2023-09-07T05:34:57.159Z,77.19
2023-09-07T05:37:25.137Z,78.54
2023-09-07T05:39:53.072Z,76.96
2023-09-07T05:42:22.526Z,77.20
2023-09-07T05:44:50.464Z,75.48
2023-09-07T05:47:18.852Z,75.65
2023-09-07T05:49:46.985Z,75.04
2023-09-07T05:52:15.008Z,75.17
2023-09-07T05:54:43.023Z,74.51
2023-09-07T05:57:11.110Z,74.34
2023-09-07T05:59:40.408Z,74.61
2023-09-07T06:02:09.031Z,74.14
2023-09-07T06:04:37.325Z,76.67
2023-09-07T06:07:05.602Z,74.51
2023-09-07T06:09:33.571Z,73.90
2023-09-07T06:12:01.533Z,73.66
2023-09-07T06:14:29.525Z,74.37
2023-09-07T06:16:58.968Z,73.85
2023-09-07T06:19:27.013Z,73.65
2023-09-07T06:21:54.990Z,73.33
2023-09-07T06:24:23.011Z,73.18
2023-09-07T06:26:51.117Z,73.26
2023-09-07T06:29:19.062Z,73.22
2023-09-07T06:31:47.135Z,73.83
2023-09-07T06:34:16.616Z,74.24
2023-09-07T06:36:48.320Z,74.10
2023-09-07T06:39:16.629Z,73.91
2023-09-07T06:41:47.634Z,74.02
2023-09-07T06:44:18.508Z,75.04
2023-09-07T06:46:46.582Z,75.11
2023-09-07T06:49:16.257Z,72.76
2023-09-07T06:51:44.221Z,72.55
2023-09-07T06:54:12.221Z,72.65
2023-09-07T06:56:40.194Z,73.19
2023-09-07T06:59:08.148Z,72.46
2023-09-07T07:01:36.724Z,73.26
2023-09-07T07:04:05.132Z,72.29
2023-09-07T07:06:34.636Z,73.65
2023-09-07T07:09:02.569Z,72.56
2023-09-07T07:11:30.545Z,72.83
2023-09-07T07:13:58.540Z,74.11
2023-09-07T07:16:26.637Z,72.22
2023-09-07T07:18:54.651Z,71.64
2023-09-07T07:21:22.643Z,74.50
2023-09-07T07:23:51.985Z,71.83
2023-09-07T07:26:19.943Z,71.27
2023-09-07T07:28:47.891Z,70.92
2023-09-07T07:31:15.931Z,71.73
2023-09-07T07:33:43.941Z,71.20
2023-09-07T07:36:11.961Z,71.16
2023-09-07T07:38:40.538Z,70.95
2023-09-07T07:41:09.987Z,71.89
2023-09-07T07:43:38.006Z,71.80
2023-09-07T07:46:06.227Z,72.79
2023-09-07T07:48:36.398Z,72.44
2023-09-07T07:51:05.334Z,73.60
2023-09-07T07:53:33.729Z,71.77
2023-09-07T07:56:01.994Z,75.92
2023-09-07T07:58:31.496Z,72.52
2023-09-07T08:01:00.147Z,71.17
2023-09-07T08:03:28.466Z,71.48
2023-09-07T08:05:56.579Z,71.00
2023-09-07T08:08:24.700Z,71.87
2023-09-07T08:10:52.864Z,71.46
2023-09-07T08:13:21.066Z,72.50
2023-09-07T08:15:50.487Z,71.48
2023-09-07T08:18:18.823Z,71.85
2023-09-07T08:20:46.961Z,71.75
2023-09-07T08:23:14.930Z,71.17
2023-09-07T08:25:47.656Z,70.36
2023-09-07T08:28:17.110Z,71.35
2023-09-07T08:30:45.105Z,70.17
2023-09-07T08:33:14.573Z,72.12
2023-09-07T08:35:45.349Z,69.83
2023-09-07T08:38:14.297Z,70.52
2023-09-07T08:40:43.021Z,70.64
2023-09-07T08:43:13.426Z,70.18
2023-09-07T08:45:44.687Z,69.73
2023-09-07T08:48:16.644Z,69.60
2023-09-07T08:50:45.158Z,69.71
2023-09-07T08:53:13.097Z,69.80
2023-09-07T08:55:41.110Z,69.59
2023-09-07T08:58:09.049Z,69.69
2023-09-07T09:00:37.118Z,68.95
2023-09-07T09:03:06.050Z,68.71
2023-09-07T09:05:36.794Z,68.37
2023-09-07T09:08:06.933Z,68.54
2023-09-07T09:10:35.852Z,69.14
2023-09-07T09:13:03.965Z,70.40
2023-09-07T09:15:31.931Z,69.21
2023-09-07T09:18:00.022Z,68.65
2023-09-07T09:20:28.667Z,68.01
2023-09-07T09:22:58.387Z,68.18
2023-09-07T09:25:27.839Z,67.61
2023-09-07T09:27:55.789Z,67.36
2023-09-07T09:30:23.725Z,67.72
2023-09-07T09:32:52.254Z,66.83
2023-09-07T09:35:20.362Z,66.60
2023-09-07T09:37:49.720Z,64.16
2023-09-07T09:40:19.514Z,65.95
2023-09-07T09:42:47.616Z,65.07
2023-09-07T09:45:15.581Z,63.49
2023-09-07T09:47:44.497Z,62.59
2023-09-07T09:50:13.794Z,60.90
2023-09-07T09:52:41.902Z,62.01
2023-09-07T09:55:14.184Z,62.12
2023-09-07T09:57:43.767Z,60.91
2023-09-07T10:00:22.659Z,60.36
2023-09-07T10:02:56.831Z,59.41
2023-09-07T10:05:27.196Z,59.54
2023-09-07T10:07:55.598Z,58.48
2023-09-07T10:10:23.719Z,53.17
2023-09-07T10:12:55.806Z,56.60
2023-09-07T10:15:28.521Z,56.88
2023-09-07T10:18:07.155Z,56.18
2023-09-07T10:20:50.273Z,56.07
2023-09-07T10:23:18.350Z,54.99
2023-09-07T10:25:50.513Z,54.96
2023-09-07T10:28:25.245Z,54.50
2023-09-07T10:31:04.707Z,54.31
2023-09-07T10:33:33.676Z,53.35
2023-09-07T10:36:02.651Z,53.16
2023-09-07T10:38:30.666Z,53.58
2023-09-07T10:40:59.897Z,50.54
2023-09-07T10:43:30.143Z,50.28
2023-09-07T10:45:59.941Z,52.76
2023-09-07T10:48:28.409Z,51.11
2023-09-07T10:50:56.562Z,51.89
2023-09-07T10:53:29.345Z,52.20
2023-09-07T10:55:59.700Z,51.59
2023-09-07T10:58:30.932Z,51.57
2023-09-07T11:00:59.904Z,51.14
2023-09-07T11:03:29.121Z,48.57
2023-09-07T11:05:59.103Z,49.60
2023-09-07T11:08:27.283Z,51.32
2023-09-07T11:10:55.227Z,50.81
2023-09-07T11:13:24.214Z,51.58
2023-09-07T11:15:56.060Z,50.02
2023-09-07T11:18:24.572Z,50.15
2023-09-07T11:20:53.741Z,49.77
2023-09-07T11:23:23.033Z,49.11
2023-09-07T11:25:53.254Z,49.28
2023-09-07T11:28:23.883Z,49.22
2023-09-07T11:30:54.402Z,48.08
2023-09-07T11:33:23.513Z,47.90
2023-09-07T11:35:51.658Z,47.96
2023-09-07T11:38:20.413Z,47.78
2023-09-07T11:40:48.905Z,47.22
2023-09-07T11:43:18.048Z,46.81
2023-09-07T11:45:48.097Z,46.54
2023-09-07T11:48:17.537Z,48.10
2023-09-07T11:50:45.624Z,46.06
2023-09-07T11:53:13.771Z,47.12
2023-09-07T11:55:44.501Z,46.74
2023-09-07T11:58:12.430Z,46.78
2023-09-07T12:00:42.068Z,46.21
2023-09-07T12:03:10.065Z,46.75
2023-09-07T12:05:41.064Z,46.91
2023-09-07T12:08:09.139Z,46.46
2023-09-07T12:10:37.102Z,45.59
2023-09-07T12:13:05.388Z,44.80
2023-09-07T12:15:33.387Z,46.21
2023-09-07T12:18:01.753Z,43.49
2023-09-07T12:20:29.910Z,47.25
2023-09-07T12:22:59.238Z,48.23
2023-09-07T12:25:27.722Z,45.46
2023-09-07T12:27:56.031Z,46.16
2023-09-07T12:30:25.357Z,45.36
2023-09-07T12:32:53.835Z,45.23
2023-09-07T12:35:22.251Z,45.07
2023-09-07T12:37:50.202Z,45.12
2023-09-07T12:40:19.541Z,45.30
2023-09-07T12:42:48.534Z,46.37
2023-09-07T12:45:16.720Z,45.01
2023-09-07T12:47:44.819Z,44.61
2023-09-07T12:50:13.331Z,43.79
2023-09-07T12:52:41.370Z,44.04
2023-09-07T12:55:09.874Z,44.44
2023-09-07T12:57:39.230Z,42.63
2023-09-07T13:00:08.465Z,44.46
2023-09-07T13:02:36.536Z,42.51
2023-09-07T13:05:06.540Z,43.78
2023-09-07T13:07:35.652Z,43.69
2023-09-07T13:10:05.364Z,43.68
2023-09-07T13:12:33.767Z,43.65
2023-09-07T13:15:03.726Z,43.97
2023-09-07T13:17:32.018Z,43.32
2023-09-07T13:19:59.986Z,43.54
2023-09-07T13:22:27.970Z,42.33
2023-09-07T13:24:55.992Z,40.39
2023-09-07T13:27:23.975Z,41.79
2023-09-07T13:29:51.995Z,40.41
2023-09-07T13:32:21.418Z,43.23
2023-09-07T13:34:49.392Z,42.59
2023-09-07T13:37:17.395Z,39.81
2023-09-07T13:39:45.404Z,41.24
2023-09-07T13:42:13.386Z,41.06
2023-09-07T13:44:41.702Z,40.59
2023-09-07T13:47:09.977Z,40.28
2023-09-07T13:49:39.360Z,40.29
2023-09-07T13:52:07.857Z,40.15
2023-09-07T13:54:35.799Z,40.87
2023-09-07T13:57:03.778Z,37.03
2023-09-07T13:59:34.449Z,39.12
2023-09-07T14:02:02.541Z,40.21
2023-09-07T14:04:32.157Z,38.96
2023-09-07T14:07:01.529Z,39.76
2023-09-07T14:09:29.694Z,37.89
2023-09-07T14:11:57.647Z,37.65
2023-09-07T14:14:25.641Z,39.64
2023-09-07T14:16:58.082Z,39.44
2023-09-07T14:19:28.633Z,39.45
2023-09-07T14:21:56.583Z,35.15
2023-09-07T14:24:26.129Z,38.92
2023-09-07T14:26:53.241Z,37.01
2023-09-07T14:29:21.253Z,39.77
2023-09-07T14:31:49.193Z,37.46
2023-09-07T14:34:17.142Z,38.95
2023-09-07T14:36:45.148Z,36.71
2023-09-07T14:39:13.366Z,38.45
2023-09-07T14:41:44.367Z,39.46
2023-09-07T14:44:12.297Z,36.55
2023-09-07T14:46:40.342Z,36.84
2023-09-07T14:49:08.335Z,37.34
2023-09-07T14:51:36.283Z,38.15
2023-09-07T14:54:04.227Z,39.27
2023-09-07T14:56:36.389Z,36.72
2023-09-07T14:59:05.931Z,38.43
2023-09-07T15:01:34.173Z,38.10
2023-09-07T15:04:02.221Z,38.41
2023-09-07T15:06:32.082Z,38.73
2023-09-07T15:09:00.821Z,38.09
2023-09-07T15:11:28.901Z,36.13
2023-09-07T15:13:56.979Z,36.67
2023-09-07T15:16:26.584Z,38.02
2023-09-07T15:18:54.809Z,39.16
2023-09-07T15:21:23.069Z,37.93
2023-09-07T15:23:51.002Z,38.25
2023-09-07T15:26:19.011Z,35.40
2023-09-07T15:28:47.058Z,38.17
2023-09-07T15:31:15.093Z,38.27
2023-09-07T15:33:44.506Z,37.44
2023-09-07T15:36:14.683Z,37.08
2023-09-07T15:38:42.905Z,37.47
2023-09-07T15:41:10.956Z,37.32
2023-09-07T15:43:38.976Z,36.54
2023-09-07T15:46:07.016Z,36.89
2023-09-07T15:48:35.402Z,36.50
2023-09-07T15:51:05.049Z,36.67
2023-09-07T15:53:34.742Z,36.35
2023-09-07T15:56:03.001Z,36.83
2023-09-07T15:58:31.422Z,34.23
2023-09-07T16:00:59.776Z,35.70
2023-09-07T16:03:27.790Z,36.00
2023-09-07T16:05:55.758Z,34.84
2023-09-07T16:08:26.858Z,33.51
2023-09-07T16:10:56.899Z,35.22
2023-09-07T16:13:24.917Z,35.35
2023-09-07T16:15:52.895Z,35.50
2023-09-07T16:18:21.357Z,35.21
2023-09-07T16:20:50.354Z,34.77
2023-09-07T16:23:18.397Z,34.72
2023-09-07T16:25:48.933Z,34.65
2023-09-07T16:28:17.972Z,35.09
2023-09-07T16:30:47.286Z,35.15
2023-09-07T16:33:15.296Z,33.15
2023-09-07T16:35:43.617Z,35.05
2023-09-07T16:38:11.687Z,34.32
2023-09-07T16:40:40.185Z,33.92
2023-09-07T16:43:09.616Z,31.92
2023-09-07T16:45:37.643Z,35.24
2023-09-07T16:48:06.277Z,35.07
2023-09-07T16:50:34.322Z,34.73
2023-09-07T16:53:02.312Z,34.98
2023-09-07T16:55:30.592Z,32.19
2023-09-07T16:57:58.714Z,35.41
2023-09-07T17:00:28.061Z,34.11
2023-09-07T17:02:56.181Z,38.22
2023-09-07T17:05:24.418Z,39.14
2023-09-07T17:07:52.368Z,41.75
2023-09-07T17:10:20.486Z,42.85
2023-09-07T17:12:48.422Z,43.83
2023-09-07T17:15:16.493Z,44.82
2023-09-07T17:17:45.870Z,45.16
2023-09-07T17:20:14.825Z,45.98
2023-09-07T17:22:46.862Z,45.92
2023-09-07T17:25:14.993Z,46.17
2023-09-07T17:27:43.770Z,47.31
2023-09-07T17:30:12.208Z,47.12
2023-09-07T17:32:40.410Z,44.16
2023-09-07T17:35:10.180Z,47.15
2023-09-07T17:37:38.143Z,47.13
2023-09-07T17:40:07.370Z,47.36
2023-09-07T17:42:35.468Z,47.86
2023-09-07T17:45:03.404Z,48.53
2023-09-07T17:47:31.441Z,49.07
2023-09-07T17:49:59.510Z,49.46
2023-09-07T17:52:28.877Z,48.72
2023-09-07T17:54:56.876Z,49.40
2023-09-07T17:57:24.873Z,49.30
2023-09-07T17:59:53.418Z,49.26
2023-09-07T18:02:23.491Z,50.45
2023-09-07T18:04:52.496Z,50.85
2023-09-07T18:07:20.576Z,50.99
2023-09-07T18:09:49.957Z,49.54
2023-09-07T18:12:17.930Z,51.41
2023-09-07T18:14:46.032Z,51.16
2023-09-07T18:17:13.994Z,51.05
2023-09-07T18:19:41.972Z,51.42
2023-09-07T18:22:11.086Z,51.78
2023-09-07T18:24:39.421Z,52.20
2023-09-07T18:27:08.908Z,52.61
2023-09-07T18:29:36.858Z,52.39
2023-09-07T18:32:05.033Z,53.08
2023-09-07T18:34:34.740Z,53.61
2023-09-07T18:37:02.838Z,53.05
2023-09-07T18:39:30.849Z,53.21
2023-09-07T18:41:59.052Z,54.77
2023-09-07T18:44:29.008Z,53.91
2023-09-07T18:46:57.008Z,54.56
2023-09-07T18:49:25.712Z,54.84
2023-09-07T18:51:53.645Z,54.95
2023-09-07T18:54:21.635Z,54.50
2023-09-07T18:56:49.779Z,55.79
2023-09-07T18:59:18.542Z,55.31
2023-09-07T19:01:49.890Z,54.96
2023-09-07T19:04:17.922Z,54.95
2023-09-07T19:06:45.871Z,54.40
2023-09-07T19:09:13.855Z,53.95
2023-09-07T19:11:41.798Z,53.39
2023-09-07T19:14:09.767Z,54.57
2023-09-07T19:16:37.835Z,53.92
2023-09-07T19:19:07.456Z,54.74
2023-09-07T19:21:35.887Z,55.49
2023-09-07T19:24:04.052Z,55.09
2023-09-07T19:26:33.488Z,55.79
2023-09-07T19:29:04.516Z,54.80
2023-09-07T19:31:33.543Z,56.04
2023-09-07T19:34:02.494Z,57.10
2023-09-07T19:36:32.865Z,57.17
2023-09-07T19:39:01.795Z,57.31
2023-09-07T19:41:30.473Z,57.01
2023-09-07T19:43:59.025Z,57.16
2023-09-07T19:46:27.095Z,59.12
2023-09-07T19:48:55.552Z,61.48
2023-09-07T19:51:24.557Z,60.44
2023-09-07T19:53:53.939Z,61.07
2023-09-07T19:56:24.906Z,60.74
2023-09-07T19:58:54.478Z,60.83
2023-09-07T20:01:23.288Z,60.26
2023-09-07T20:03:54.704Z,61.06
2023-09-07T20:06:26.133Z,61.10
2023-09-07T20:08:55.919Z,60.67
2023-09-07T20:11:23.988Z,59.95
2023-09-07T20:13:52.075Z,60.02
2023-09-07T20:16:20.181Z,59.40
2023-09-07T20:18:48.235Z,58.82
2023-09-07T20:21:16.317Z,58.82
2023-09-07T20:23:44.369Z,59.45
2023-09-07T20:26:14.075Z,59.64
2023-09-07T20:28:44.010Z,59.35
2023-09-07T20:31:12.369Z,59.13
2023-09-07T20:33:40.530Z,59.17
2023-09-07T20:36:09.130Z,59.39
2023-09-07T20:38:37.880Z,59.55
2023-09-07T20:41:06.224Z,59.57
2023-09-07T20:43:38.808Z,59.43
2023-09-07T20:46:07.830Z,59.84
2023-09-07T20:48:36.199Z,59.79
2023-09-07T20:51:05.850Z,60.20
2023-09-07T20:53:34.210Z,60.30
2023-09-07T20:56:02.188Z,60.40
2023-09-07T20:58:30.356Z,60.52
2023-09-07T21:01:03.678Z,60.43
2023-09-07T21:03:32.534Z,60.71
2023-09-07T21:06:00.972Z,60.85
2023-09-07T21:08:29.110Z,60.98
2023-09-07T21:10:57.138Z,61.14
2023-09-07T21:13:25.248Z,61.17
2023-09-07T21:15:53.211Z,61.08
2023-09-07T21:18:22.707Z,61.01
2023-09-07T21:20:50.684Z,61.24
2023-09-07T21:23:18.668Z,61.39
2023-09-07T21:25:46.670Z,61.84
2023-09-07T21:28:15.503Z,61.58
2023-09-07T21:30:43.537Z,61.86
2023-09-07T21:33:11.587Z,62.02
2023-09-07T21:35:40.988Z,62.58
2023-09-07T21:38:08.997Z,62.68
2023-09-07T21:40:37.374Z,62.99
2023-09-07T21:43:05.925Z,62.77
2023-09-07T21:45:33.979Z,63.11
2023-09-07T21:48:02.024Z,63.21
2023-09-07T21:50:30.036Z,63.00
2023-09-07T21:52:59.426Z,63.32
2023-09-07T21:55:27.469Z,63.67
2023-09-07T21:57:55.463Z,63.82
2023-09-07T22:00:23.551Z,63.82
2023-09-07T22:02:52.151Z,63.61
2023-09-07T22:05:20.384Z,63.75
2023-09-07T22:07:48.453Z,64.10
2023-09-07T22:10:17.831Z,64.50
2023-09-07T22:12:45.845Z,64.70
2023-09-07T22:15:13.911Z,65.14
2023-09-07T22:17:44.312Z,65.10
2023-09-07T22:20:12.585Z,65.05
2023-09-07T22:22:40.611Z,65.12
2023-09-07T22:25:09.297Z,65.31
2023-09-07T22:27:38.701Z,65.96
2023-09-07T22:30:08.324Z,65.85
2023-09-07T22:32:36.397Z,65.84
2023-09-07T22:35:05.903Z,64.94
2023-09-07T22:37:33.899Z,64.84
2023-09-07T22:40:01.885Z,65.08
2023-09-07T22:42:29.844Z,65.08
2023-09-07T22:44:59.245Z,64.79
2023-09-07T22:47:27.303Z,64.80
2023-09-07T22:49:55.389Z,65.05
2023-09-07T22:52:23.405Z,64.79
2023-09-07T22:54:51.388Z,65.60
2023-09-07T22:57:19.444Z,65.67
2023-09-07T22:59:47.573Z,65.86
2023-09-07T23:02:17.009Z,65.43
2023-09-07T23:04:45.190Z,65.73
2023-09-07T23:07:14.447Z,65.66
2023-09-07T23:09:43.938Z,66.13
2023-09-07T23:12:12.233Z,66.90
2023-09-07T23:14:40.647Z,67.02
2023-09-07T23:17:08.821Z,66.93
2023-09-07T23:19:38.322Z,66.79
2023-09-07T23:22:06.325Z,67.38
2023-09-07T23:24:34.361Z,67.18
2023-09-07T23:27:02.420Z,67.40
2023-09-07T23:29:30.473Z,66.98
2023-09-07T23:31:58.490Z,66.92
2023-09-07T23:34:28.358Z,67.32
2023-09-07T23:36:58.697Z,67.83
2023-09-07T23:39:26.748Z,67.55
2023-09-07T23:41:54.728Z,67.73
2023-09-07T23:44:22.956Z,68.26
2023-09-07T23:46:50.913Z,68.06
2023-09-07T23:49:18.961Z,67.42
2023-09-07T23:51:46.955Z,67.51
2023-09-07T23:54:17.293Z,67.23
2023-09-07T23:56:45.241Z,67.35
2023-09-07T23:59:13.195Z,67.41
